Time;durP1;ratioP1;P1;durP2;ratioP2;P2;SDS_P1;SDS_P2;PMS_P1;PMS_P2;Temp;Humidity;BMP_temperature;BMP_pressure;BME280_temperature;BME280_humidity;BME280_pressure;Samples;Min_cycle;Max_cycle;Signal;HPM_P1;HPM_P2
2023/05/24 00:02:05;;;;;;;10.90;3.47;;;;;;;13.04;61.56;102647.28;5047674;28;20112;-43
2023/05/24 00:04:31;;;;;;;9.30;3.05;;;;;;;13.05;61.42;102640.31;5030275;28;20115;-44
2023/05/24 00:06:57;;;;;;;11.48;3.30;;;;;;;12.97;62.10;102640.06;5048182;28;20139;-43
2023/05/24 00:09:22;;;;;;;14.00;3.50;;;;;;;12.82;63.18;102639.56;5050142;28;20406;-44
2023/05/24 00:11:47;;;;;;;12.90;3.55;;;;;;;12.80;63.29;102639.53;5048682;28;20033;-48
2023/05/24 00:14:13;;;;;;;7.38;3.00;;;;;;;12.94;62.67;102632.97;5048402;28;20029;-44
2023/05/24 00:16:38;;;;;;;10.68;3.30;;;;;;;12.89;62.88;102631.06;5048436;28;20498;-46
2023/05/24 00:19:04;;;;;;;11.32;3.50;;;;;;;12.65;63.94;102622.41;5048294;28;20056;-45
2023/05/24 00:21:30;;;;;;;12.35;3.25;;;;;;;12.57;64.17;102623.06;5047938;28;20029;-46
2023/05/24 00:23:56;;;;;;;16.40;3.55;;;;;;;12.79;63.61;102629.00;5030821;28;20037;-47
2023/05/24 00:26:21;;;;;;;9.82;3.03;;;;;;;12.85;62.83;102634.44;5047791;28;20037;-48
2023/05/24 00:28:47;;;;;;;9.35;3.00;;;;;;;12.83;62.72;102631.75;5048307;28;20048;-47
2023/05/24 00:31:12;;;;;;;11.02;3.03;;;;;;;12.81;62.68;102625.56;5048040;28;20086;-47
2023/05/24 00:33:37;;;;;;;11.82;3.50;;;;;;;12.81;62.44;102622.97;5047784;28;20033;-44
2023/05/24 00:36:03;;;;;;;9.05;2.83;;;;;;;12.78;62.55;102621.97;5047697;28;20079;-49
2023/05/24 00:38:28;;;;;;;10.55;3.03;;;;;;;12.73;62.35;102631.41;5047239;28;20107;-44
2023/05/24 00:40:59;;;;;;;10.95;3.28;;;;;;;12.69;62.48;102629.53;5047978;28;20033;-46
2023/05/24 00:43:24;;;;;;;10.07;3.00;;;;;;;12.70;62.25;102633.91;5047546;28;20403;-44
2023/05/24 00:46:14;;;;;;;9.68;2.95;;;;;;;12.67;62.75;102629.50;5049109;28;20033;-45
2023/05/24 00:48:40;;;;;;;12.07;3.17;;;;;;;12.68;62.22;102633.91;5051333;28;20041;-49
2023/05/24 00:51:05;;;;;;;10.23;3.35;;;;;;;12.76;62.18;102634.13;5052105;28;20449;-48
2023/05/24 00:53:32;;;;;;;10.50;2.95;;;;;;;12.70;62.72;102633.91;5051413;28;20029;-44
2023/05/24 00:55:58;;;;;;;8.55;3.30;;;;;;;12.66;62.74;102630.34;5051732;28;20037;-46
2023/05/24 00:58:29;;;;;;;11.45;3.33;;;;;;;12.68;62.79;102627.78;5051597;28;20029;-45
2023/05/24 01:00:58;;;;;;;9.35;3.05;;;;;;;12.65;63.16;102628.53;5051945;28;20029;-45
2023/05/24 01:03:28;;;;;;;13.20;3.40;;;;;;;12.57;63.24;102630.91;5056912;28;20101;-45
2023/05/24 01:05:58;;;;;;;11.98;3.33;;;;;;;12.63;62.93;102626.69;5056212;28;20051;-44
2023/05/24 01:08:38;;;;;;;9.23;2.92;;;;;;;12.59;63.00;102625.72;5052278;28;20142;-48
2023/05/24 01:11:22;;;;;;;10.73;3.10;;;;;;;12.59;62.75;102616.16;5051315;28;20083;-44
2023/05/24 01:14:02;;;;;;;13.10;3.55;;;;;;;12.44;63.43;102614.78;5050877;28;20488;-44
2023/05/24 01:16:40;;;;;;;9.20;3.20;;;;;;;12.48;63.14;102624.50;5049766;28;20041;-47
2023/05/24 01:19:42;;;;;;;9.25;3.53;;;;;;;12.45;63.10;102617.41;5051603;28;20491;-44
2023/05/24 01:22:39;;;;;;;9.50;3.33;;;;;;;12.41;63.12;102628.63;5051005;28;20037;-47
2023/05/24 01:25:05;;;;;;;10.68;3.03;;;;;;;12.42;63.19;102634.75;5050984;28;20462;-45
2023/05/24 01:27:32;;;;;;;11.13;3.28;;;;;;;12.36;63.29;102624.97;5051301;28;20047;-46
2023/05/24 01:29:59;;;;;;;11.70;3.00;;;;;;;12.37;63.45;102623.25;5050971;28;20040;-44
2023/05/24 01:32:24;;;;;;;10.20;3.20;;;;;;;12.38;63.10;102620.66;5050730;28;20048;-45
2023/05/24 01:34:49;;;;;;;9.23;3.10;;;;;;;12.36;63.53;102624.06;5050514;28;20037;-45
2023/05/24 01:37:15;;;;;;;12.10;3.38;;;;;;;12.35;63.20;102619.69;5050854;28;20388;-45
2023/05/24 01:39:40;;;;;;;10.88;3.13;;;;;;;12.31;63.38;102616.09;5050823;28;20033;-47
2023/05/24 01:42:15;;;;;;;10.02;3.20;;;;;;;12.31;63.39;102618.69;5050337;28;20049;-50
2023/05/24 01:44:52;;;;;;;;;;;;;;;12.30;63.43;102622.16;5032887;28;20037;-44
2023/05/24 01:47:27;;;;;;;8.68;2.90;;;;;;;12.32;63.31;102619.59;5050394;28;19913;-49
2023/05/24 01:50:12;;;;;;;;;;;;;;;12.30;63.46;102618.63;5049955;28;20041;-47
2023/05/24 01:52:39;;;;;;;9.45;2.60;;;;;;;12.31;62.98;102612.56;5049307;28;19920;-47
2023/05/24 01:55:07;;;;;;;7.93;2.88;;;;;;;12.29;63.28;102611.63;5050470;28;20108;-45
2023/05/24 01:57:33;;;;;;;7.82;2.90;;;;;;;12.26;63.39;102608.91;5049797;28;20454;-44
2023/05/24 02:00:00;;;;;;;10.27;3.13;;;;;;;12.25;63.58;102612.38;5050361;28;20029;-46
2023/05/24 02:02:26;;;;;;;11.23;3.17;;;;;;;12.26;63.85;102608.91;5050076;28;20028;-46
2023/05/24 02:04:51;;;;;;;9.93;3.00;;;;;;;12.24;63.74;102602.75;5050388;28;20087;-44
2023/05/24 02:07:18;;;;;;;8.05;2.65;;;;;;;12.26;63.62;102599.31;5050265;28;20371;-49
2023/05/24 02:09:43;;;;;;;7.95;2.55;;;;;;;12.25;63.56;102605.41;5050513;28;20040;-48
2023/05/24 02:12:09;;;;;;;7.95;3.00;;;;;;;12.26;63.76;102607.16;5050378;28;20025;-44
2023/05/24 02:14:36;;;;;;;8.63;2.88;;;;;;;12.26;63.78;102608.91;5049822;28;20036;-45
2023/05/24 02:17:02;;;;;;;7.63;2.67;;;;;;;12.26;63.68;102608.91;5049813;28;20104;-46
2023/05/24 02:19:27;;;;;;;8.75;2.80;;;;;;;12.24;63.78;102603.63;5050052;28;20120;-50
2023/05/24 02:21:53;;;;;;;9.02;2.88;;;;;;;12.20;63.97;102596.50;5050284;28;20580;-44
2023/05/24 02:24:18;;;;;;;15.27;3.58;;;;;;;12.02;65.57;102599.38;5049852;28;20032;-47
2023/05/24 02:26:44;;;;;;;11.45;3.20;;;;;;;12.18;64.58;102599.09;5049830;28;20025;-46
2023/05/24 02:29:09;;;;;;;12.73;3.60;;;;;;;12.15;64.85;102603.31;5049873;28;20040;-48
2023/05/24 02:31:35;;;;;;;14.48;3.45;;;;;;;12.11;64.90;102596.19;5050178;28;20029;-46
2023/05/24 02:34:00;;;;;;;6.80;3.20;;;;;;;12.18;64.44;102599.09;5050178;28;20033;-48
2023/05/24 02:36:26;;;;;;;10.00;3.22;;;;;;;12.17;65.06;102599.03;5049932;28;20144;-46
2023/05/24 02:38:51;;;;;;;11.73;3.08;;;;;;;12.22;64.48;102602.69;5049975;28;20282;-45
2023/05/24 02:41:17;;;;;;;11.98;3.40;;;;;;;12.08;65.25;102598.69;5049718;28;20064;-48
2023/05/24 02:43:44;;;;;;;12.60;3.25;;;;;;;12.19;64.70;102599.97;5049450;28;20033;-45
2023/05/24 02:46:09;;;;;;;7.03;2.75;;;;;;;12.19;64.42;102605.22;5052380;28;20029;-47
2023/05/24 02:48:35;;;;;;;11.60;3.38;;;;;;;12.18;64.72;102601.69;5050231;28;20029;-44
2023/05/24 02:51:02;;;;;;;10.38;3.30;;;;;;;11.95;65.92;102613.09;5051091;28;20499;-45
2023/05/24 02:53:30;;;;;;;14.88;3.50;;;;;;;12.05;66.06;102609.94;5051870;28;20048;-45
2023/05/24 02:55:56;;;;;;;14.68;3.08;;;;;;;12.17;65.24;102612.09;5051495;28;20052;-46
2023/05/24 02:58:21;;;;;;;11.63;3.35;;;;;;;12.16;64.88;102610.31;5049471;28;20060;-49
2023/05/24 03:00:47;;;;;;;9.27;2.70;;;;;;;12.18;64.57;102609.53;5049822;28;20560;-45
2023/05/24 03:03:13;;;;;;;12.13;3.30;;;;;;;12.16;64.80;102600.75;5049170;28;20025;-47
2023/05/24 03:05:38;;;;;;;10.60;2.75;;;;;;;12.12;64.73;102605.81;5049635;28;20025;-45
2023/05/24 03:08:05;;;;;;;11.38;3.30;;;;;;;12.14;64.71;102598.91;5031369;28;20112;-41
2023/05/24 03:10:30;;;;;;;12.18;3.28;;;;;;;12.11;64.86;102601.44;5048375;28;20029;-45
2023/05/24 03:12:55;;;;;;;8.80;3.10;;;;;;;12.12;64.49;102601.50;5048552;28;20040;-44
2023/05/24 03:15:21;;;;;;;9.43;3.13;;;;;;;12.10;64.59;102590.09;5031105;28;20476;-45
2023/05/24 03:17:46;;;;;;;8.23;3.25;;;;;;;12.08;64.83;102594.34;5048924;28;20037;-48
2023/05/24 03:20:11;;;;;;;14.88;3.40;;;;;;;12.08;64.80;102594.34;5048993;28;20083;-45
2023/05/24 03:22:37;;;;;;;9.77;3.05;;;;;;;12.08;64.97;102596.97;5050099;28;20082;-45
2023/05/24 03:25:03;;;;;;;9.40;3.15;;;;;;;12.08;64.99;102589.13;5051395;28;20062;-44
2023/05/24 03:27:28;;;;;;;9.77;3.35;;;;;;;12.11;64.85;102588.34;5053187;28;20090;-46
2023/05/24 03:29:53;;;;;;;10.40;3.08;;;;;;;12.08;65.21;102589.13;5049004;28;20025;-44
2023/05/24 03:32:19;;;;;;;11.30;3.30;;;;;;;12.10;64.81;102590.09;5048362;28;20407;-44
2023/05/24 03:34:44;;;;;;;15.57;3.08;;;;;;;12.12;64.79;102591.03;5048722;28;20033;-44
2023/05/24 03:37:10;;;;;;;9.10;3.13;;;;;;;12.11;64.73;102584.03;5048283;28;20440;-44
2023/05/24 03:39:35;;;;;;;8.40;2.95;;;;;;;12.12;65.05;102584.91;5048975;28;20614;-47
2023/05/24 03:42:00;;;;;;;11.95;3.10;;;;;;;12.14;65.01;102586.72;5047973;28;20037;-49
2023/05/24 03:44:25;;;;;;;12.65;3.20;;;;;;;12.10;65.23;102581.34;5048374;28;20029;-44
2023/05/24 03:46:51;;;;;;;13.43;3.50;;;;;;;12.03;66.52;102584.59;5046940;28;20128;-45
2023/05/24 03:49:16;;;;;;;13.55;3.33;;;;;;;11.97;67.28;102581.75;5048405;28;20041;-44
2023/05/24 03:51:41;;;;;;;11.57;3.53;;;;;;;12.19;66.32;102590.41;5047992;28;20505;-46
2023/05/24 03:54:07;;;;;;;11.38;3.10;;;;;;;12.28;65.93;102583.69;5047564;28;20033;-44
2023/05/24 03:56:32;;;;;;;10.15;3.05;;;;;;;12.32;65.78;102590.81;5047576;28;20036;-47
2023/05/24 03:59:02;;;;;;;10.48;3.42;;;;;;;12.31;65.85;102584.69;5047502;28;20438;-46
2023/05/24 04:01:30;;;;;;;10.38;3.08;;;;;;;12.38;65.80;102586.66;5048994;28;20036;-44
2023/05/24 04:03:56;;;;;;;14.77;3.53;;;;;;;12.17;67.02;102591.19;5047909;28;20047;-47
2023/05/24 04:06:27;;;;;;;13.98;3.60;;;;;;;12.19;67.24;102594.75;5050084;28;20115;-48
2023/05/24 04:08:53;;;;;;;13.02;3.70;;;;;;;12.44;66.62;102602.56;5048245;28;20045;-45
2023/05/24 04:11:19;;;;;;;11.65;3.10;;;;;;;12.57;66.19;102609.09;5048232;28;20557;-48
2023/05/24 04:13:44;;;;;;;9.50;3.30;;;;;;;12.72;66.18;102596.50;5048012;28;20033;-46
2023/05/24 04:16:10;;;;;;;10.88;2.90;;;;;;;12.91;66.10;102608.44;5048254;28;20483;-41
2023/05/24 04:18:35;;;;;;;11.40;3.22;;;;;;;13.00;66.28;102607.00;5048568;28;20505;-44
2023/05/24 04:21:00;;;;;;;11.05;3.15;;;;;;;13.07;66.30;102601.94;5047439;28;20048;-47
2023/05/24 04:23:25;;;;;;;9.60;3.30;;;;;;;13.32;66.37;102601.88;5047609;28;20043;-50
2023/05/24 04:25:51;;;;;;;11.70;3.50;;;;;;;13.56;66.26;102609.56;5048332;28;20120;-47
2023/05/24 04:28:16;;;;;;;10.40;3.35;;;;;;;13.71;66.08;102610.91;5047918;28;20055;-47
2023/05/24 04:30:44;;;;;;;12.40;3.50;;;;;;;13.91;65.90;102607.91;5047937;28;20037;-47
2023/05/24 04:33:10;;;;;;;11.05;2.95;;;;;;;14.07;65.80;102600.53;5047531;28;20037;-43
2023/05/24 04:35:35;;;;;;;12.27;3.70;;;;;;;14.22;65.36;102608.78;5048492;28;20071;-45
2023/05/24 04:38:01;;;;;;;11.13;3.88;;;;;;;14.49;65.03;102606.00;5047354;28;20029;-46
2023/05/24 04:40:26;;;;;;;11.40;3.22;;;;;;;14.70;64.42;102597.75;5048204;28;20488;-46
2023/05/24 04:42:52;;;;;;;11.75;3.25;;;;;;;14.83;63.71;102598.94;5049788;28;20040;-45
2023/05/24 04:45:17;;;;;;;11.98;3.72;;;;;;;14.90;62.54;102601.75;5049714;28;20033;-44
2023/05/24 04:47:42;;;;;;;11.68;3.60;;;;;;;14.56;62.31;102601.81;5047749;28;20064;-44
2023/05/24 04:50:08;;;;;;;14.18;3.70;;;;;;;14.73;62.44;102599.56;5047975;28;20047;-44
2023/05/24 04:52:35;;;;;;;12.75;3.40;;;;;;;14.92;62.14;102594.81;5046584;28;20055;-45
2023/05/24 04:55:01;;;;;;;13.23;3.47;;;;;;;15.14;61.83;102592.63;5047271;28;20036;-48
2023/05/24 04:57:27;;;;;;;13.63;3.40;;;;;;;15.40;61.66;102592.34;5047214;28;20033;-44
2023/05/24 04:59:52;;;;;;;12.32;3.40;;;;;;;15.41;61.48;102594.13;5030095;28;20033;-46
2023/05/24 05:02:17;;;;;;;10.95;3.20;;;;;;;15.40;61.43;102594.09;5047051;28;20036;-46
2023/05/24 05:04:42;;;;;;;22.48;9.02;;;;;;;15.43;61.09;102597.66;5049097;28;20510;-43
2023/05/24 05:07:08;;;;;;;19.30;7.88;;;;;;;15.53;61.41;102590.00;5050637;28;20029;-49
2023/05/24 05:09:33;;;;;;;15.88;4.50;;;;;;;15.76;59.61;102588.72;5050441;28;20075;-43
2023/05/24 05:11:59;;;;;;;15.50;4.55;;;;;;;16.16;58.48;102593.84;5049274;28;20044;-45
2023/05/24 05:14:24;;;;;;;15.52;4.50;;;;;;;16.88;57.72;102589.81;5049668;28;20040;-49
2023/05/24 05:16:49;;;;;;;17.20;4.25;;;;;;;17.21;54.67;102586.72;5049484;28;20119;-44
2023/05/24 05:19:15;;;;;;;18.40;4.13;;;;;;;18.13;52.72;102581.66;5050005;28;20112;-45
2023/05/24 05:21:40;;;;;;;14.70;4.30;;;;;;;18.49;51.34;102587.25;5047812;28;20053;-48
2023/05/24 05:24:06;;;;;;;15.52;3.83;;;;;;;18.95;49.22;102591.16;5047625;28;20568;-45
2023/05/24 05:26:31;;;;;;;17.63;4.35;;;;;;;19.49;49.78;102588.81;5047277;28;20043;-49
2023/05/24 05:28:57;;;;;;;12.95;3.83;;;;;;;19.40;47.91;102584.31;5047381;28;20036;-46
2023/05/24 05:31:22;;;;;;;16.92;4.40;;;;;;;18.95;49.31;102591.16;5047205;28;20033;-44
2023/05/24 05:33:48;;;;;;;15.40;4.28;;;;;;;18.13;52.30;102593.13;5049726;28;20070;-46
2023/05/24 05:36:14;;;;;;;17.83;4.13;;;;;;;18.07;52.92;102598.34;5050972;28;20025;-49
2023/05/24 05:38:39;;;;;;;19.27;4.80;;;;;;;17.59;54.64;102598.66;5050915;28;20040;-52
2023/05/24 05:41:05;;;;;;;18.52;4.50;;;;;;;17.53;54.62;102601.22;5051696;28;20036;-47
2023/05/24 05:43:30;;;;;;;17.45;4.22;;;;;;;17.86;54.09;102600.78;5050969;28;20033;-45
2023/05/24 05:45:56;;;;;;;14.73;4.53;;;;;;;17.53;54.71;102602.97;5051203;28;20033;-47
2023/05/24 05:48:21;;;;;;;18.30;4.63;;;;;;;16.76;57.32;102610.69;5050842;28;20025;-43
2023/05/24 05:50:46;;;;;;;13.00;3.97;;;;;;;17.25;57.36;102607.91;5050580;28;20105;-44
2023/05/24 05:53:12;;;;;;;18.52;5.10;;;;;;;16.42;60.08;102617.09;5050348;28;20037;-45
2023/05/24 05:55:37;;;;;;;22.52;5.00;;;;;;;15.93;60.74;102612.69;5052098;28;20057;-45
2023/05/24 05:58:02;;;;;;;21.73;4.93;;;;;;;16.16;60.52;102608.78;5051102;28;20033;-50
2023/05/24 06:00:27;;;;;;;13.70;4.28;;;;;;;16.13;60.02;102609.59;5053451;28;20041;-45
2023/05/24 06:02:53;;;;;;;19.77;4.85;;;;;;;15.82;59.29;102607.25;5053324;28;20036;-48
2023/05/24 06:05:18;;;;;;;16.70;4.75;;;;;;;16.07;59.31;102605.97;5035795;28;20495;-43
2023/05/24 06:07:44;;;;;;;18.65;4.55;;;;;;;16.69;58.86;102604.44;5053853;28;20025;-43
2023/05/24 06:10:10;;;;;;;16.15;5.05;;;;;;;16.96;57.20;102610.09;5054984;28;20171;-47
2023/05/24 06:12:36;;;;;;;17.40;6.40;;;;;;;16.86;57.58;102610.84;5053907;28;20063;-45
2023/05/24 06:15:05;;;;;;;17.02;6.18;;;;;;;16.91;56.58;102611.78;5050889;28;20029;-44
2023/05/24 06:17:30;;;;;;;17.58;7.18;;;;;;;17.38;55.38;102607.19;5050613;28;20029;-45
2023/05/24 06:19:55;;;;;;;22.88;6.63;;;;;;;16.50;56.60;102613.75;5051957;28;20513;-45
2023/05/24 06:22:21;;;;;;;20.35;6.63;;;;;;;16.30;58.19;102619.53;5051085;28;20029;-45
2023/05/24 06:24:48;;;;;;;21.52;6.60;;;;;;;16.92;57.22;102620.59;5050447;28;20047;-47
2023/05/24 06:27:13;;;;;;;23.67;6.40;;;;;;;17.15;56.65;102627.06;5049620;28;20516;-44
2023/05/24 06:29:38;;;;;;;13.85;4.43;;;;;;;17.64;52.55;102615.44;5032506;28;20033;-46
2023/05/24 06:32:04;;;;;;;13.45;3.65;;;;;;;17.96;51.64;102618.47;5049827;28;20025;-44
2023/05/24 06:34:29;;;;;;;15.13;4.18;;;;;;;17.93;51.29;102622.84;5049969;28;20048;-44
2023/05/24 06:36:55;;;;;;;14.88;4.13;;;;;;;17.40;52.26;102623.91;5049649;28;20474;-47
2023/05/24 06:39:20;;;;;;;13.80;4.50;;;;;;;17.34;51.05;102622.94;5049694;28;20129;-51
2023/05/24 06:41:46;;;;;;;19.83;4.22;;;;;;;17.56;51.13;102617.09;5049129;28;20029;-49
2023/05/24 06:44:11;;;;;;;18.13;4.55;;;;;;;17.14;52.59;102620.03;5049266;28;20029;-46
2023/05/24 06:46:38;;;;;;;14.23;4.55;;;;;;;16.79;54.67;102624.78;5049895;28;20033;-47
2023/05/24 06:49:03;;;;;;;17.45;4.00;;;;;;;17.76;51.90;102618.22;5049445;28;20082;-46
2023/05/24 06:51:30;;;;;;;13.50;3.55;;;;;;;18.44;49.07;102618.03;5049119;28;20037;-47
2023/05/24 06:53:55;;;;;;;13.20;3.50;;;;;;;19.33;46.96;102615.16;5049366;28;20033;-46
2023/05/24 06:56:20;;;;;;;14.27;3.78;;;;;;;19.90;45.97;102608.34;5047117;28;20114;-44
2023/05/24 06:58:46;;;;;;;16.15;3.78;;;;;;;19.05;49.23;102611.47;5047130;28;20025;-45
2023/05/24 07:01:13;;;;;;;13.13;3.35;;;;;;;18.57;48.66;102621.72;5049150;28;20499;-46
2023/05/24 07:03:38;;;;;;;15.20;3.17;;;;;;;19.60;46.83;102619.72;5049954;28;20574;-45
2023/05/24 07:06:04;;;;;;;19.00;3.70;;;;;;;19.57;46.97;102622.38;5048917;28;20785;-46
2023/05/24 07:08:29;;;;;;;14.02;3.38;;;;;;;19.73;46.51;102605.66;5048890;28;20040;-46
2023/05/24 07:10:55;;;;;;;16.02;3.85;;;;;;;18.26;49.22;102612.59;5047908;28;20037;-47
2023/05/24 07:13:21;;;;;;;18.33;3.58;;;;;;;18.86;48.38;102614.88;5048463;28;20038;-46
2023/05/24 07:15:47;;;;;;;13.05;3.42;;;;;;;18.63;48.19;102614.72;5048795;28;20043;-49
2023/05/24 07:18:13;;;;;;;12.07;3.55;;;;;;;19.01;47.42;102620.28;5048809;28;20029;-47
2023/05/24 07:20:38;;;;;;;12.80;3.58;;;;;;;19.46;45.35;102620.56;5049382;28;20029;-48
2023/05/24 07:23:03;;;;;;;18.27;3.65;;;;;;;19.44;46.10;102623.16;5048347;28;20035;-47
2023/05/24 07:25:30;;;;;;;12.95;3.50;;;;;;;19.42;45.40;102627.53;5048657;28;20045;-46
2023/05/24 07:27:55;;;;;;;16.15;3.65;;;;;;;19.38;45.77;102631.94;5048788;28;20040;-45
2023/05/24 07:30:20;;;;;;;12.50;3.55;;;;;;;19.44;46.74;102626.69;5048347;28;20029;-49
2023/05/24 07:32:46;;;;;;;10.88;3.08;;;;;;;20.15;45.04;102628.69;5048088;28;20427;-44
2023/05/24 07:35:15;;;;;;;12.30;3.38;;;;;;;20.33;42.87;102625.22;5048559;28;20036;-45
2023/05/24 07:37:41;;;;;;;16.48;3.55;;;;;;;19.98;44.01;102626.91;5048795;28;20033;-45
2023/05/24 07:40:10;;;;;;;15.30;3.70;;;;;;;20.03;43.96;102622.50;5049475;28;20546;-45
2023/05/24 07:42:35;;;;;;;11.50;3.67;;;;;;;18.16;48.31;102626.59;5048306;28;20037;-49
2023/05/24 07:45:01;;;;;;;9.57;3.10;;;;;;;17.70;49.72;102626.06;5048423;28;20760;-45
2023/05/24 07:47:27;;;;;;;15.68;3.47;;;;;;;18.99;45.71;102623.78;5048423;28;20041;-46
2023/05/24 07:49:52;;;;;;;18.77;4.07;;;;;;;18.84;47.36;102628.97;5048541;28;20044;-46
2023/05/24 07:52:17;;;;;;;14.23;3.83;;;;;;;18.75;47.97;102629.78;5049145;28;20144;-44
2023/05/24 07:54:43;;;;;;;15.15;3.45;;;;;;;19.23;45.82;102628.31;5049693;28;20032;-44
2023/05/24 07:57:08;;;;;;;12.52;3.03;;;;;;;20.18;43.97;102626.06;5048964;28;20029;-47
2023/05/24 07:59:33;;;;;;;13.20;3.50;;;;;;;19.96;44.48;102628.66;5049266;28;20064;-49
2023/05/24 08:02:04;;;;;;;14.23;3.38;;;;;;;18.70;46.91;102627.97;5047123;28;20041;-47
2023/05/24 08:04:29;;;;;;;15.90;3.70;;;;;;;19.53;45.85;102630.25;5049430;28;20041;-45
2023/05/24 08:06:56;;;;;;;16.70;3.28;;;;;;;20.49;44.52;102626.97;5048914;28;20509;-43
2023/05/24 08:09:22;;;;;;;15.23;3.67;;;;;;;20.28;44.05;102626.94;5049863;28;20128;-44
2023/05/24 08:11:47;;;;;;;13.73;3.33;;;;;;;20.83;42.36;102632.28;5049322;28;20111;-45
2023/05/24 08:14:13;;;;;;;14.02;3.70;;;;;;;21.03;42.48;102639.34;5048144;28;20063;-51
2023/05/24 08:16:38;;;;;;;10.60;3.58;;;;;;;20.72;42.24;102628.75;5048525;28;20029;-42
2023/05/24 08:19:03;;;;;;;18.48;4.05;;;;;;;20.31;44.43;102632.25;5048518;28;20029;-48
2023/05/24 08:21:29;;;;;;;13.40;3.70;;;;;;;19.93;43.65;102626.91;5048595;28;20059;-48
2023/05/24 08:23:55;;;;;;;15.00;3.58;;;;;;;20.07;42.88;102617.19;5048668;28;20033;-45
2023/05/24 08:26:21;;;;;;;13.43;3.92;;;;;;;19.47;44.42;102620.53;5048024;28;20384;-48
2023/05/24 08:28:46;;;;;;;13.10;3.63;;;;;;;18.79;46.49;102625.38;5048125;28;20037;-46
2023/05/24 08:31:11;;;;;;;12.90;3.47;;;;;;;18.87;46.36;102626.34;5048406;28;20414;-46
2023/05/24 08:33:37;;;;;;;15.52;3.40;;;;;;;19.63;45.05;102624.16;5048398;28;20450;-45
2023/05/24 08:36:02;;;;;;;11.57;3.40;;;;;;;19.47;45.00;102620.53;5047948;28;20037;-49
2023/05/24 08:38:28;;;;;;;15.55;3.80;;;;;;;19.54;44.87;102621.47;5047657;28;20036;-45
2023/05/24 08:40:53;;;;;;;15.95;3.85;;;;;;;19.32;45.38;102623.09;5047569;28;20033;-45
2023/05/24 08:43:20;;;;;;;15.60;4.03;;;;;;;19.89;44.27;102614.50;5047612;28;20037;-44
2023/05/24 08:45:47;;;;;;;14.15;3.55;;;;;;;19.04;46.05;102617.63;5047940;28;20037;-48
2023/05/24 08:48:13;;;;;;;10.43;3.33;;;;;;;19.20;46.09;102620.38;5048008;28;20035;-46
2023/05/24 08:50:40;;;;;;;13.35;3.58;;;;;;;18.99;46.35;102621.13;5049633;28;20037;-49
2023/05/24 08:53:07;;;;;;;12.82;3.45;;;;;;;19.89;44.64;102610.97;5049636;28;20029;-45
2023/05/24 08:55:34;;;;;;;13.13;3.53;;;;;;;19.78;45.46;102614.50;5049151;28;20434;-49
2023/05/24 08:57:59;;;;;;;15.93;4.13;;;;;;;20.03;44.96;102622.50;5030960;28;20025;-49
2023/05/24 09:00:25;;;;;;;13.70;3.28;;;;;;;19.91;44.87;102622.47;5048017;28;20487;-45
2023/05/24 09:02:50;;;;;;;15.55;3.55;;;;;;;20.69;42.74;102620.81;5047329;28;20048;-45
2023/05/24 09:05:16;;;;;;;10.48;3.65;;;;;;;20.62;42.75;102623.44;5047561;28;20037;-46
2023/05/24 09:07:43;;;;;;;11.90;3.80;;;;;;;19.57;45.02;102630.31;5048669;28;20544;-45
2023/05/24 09:10:09;;;;;;;12.20;3.40;;;;;;;19.09;45.90;102635.31;5052295;28;20123;-45
2023/05/24 09:12:37;;;;;;;14.02;3.67;;;;;;;19.64;45.05;102618.84;5051306;28;20730;-46
2023/05/24 09:15:04;;;;;;;14.88;3.50;;;;;;;20.13;43.89;102624.25;5051834;28;20496;-47
2023/05/24 09:17:30;;;;;;;10.98;3.60;;;;;;;19.96;42.89;102616.28;5052211;28;20045;-48
2023/05/24 09:19:58;;;;;;;17.70;4.15;;;;;;;19.02;45.45;102622.06;5051588;28;20044;-53
2023/05/24 09:22:29;;;;;;;13.77;3.35;;;;;;;19.67;44.74;102628.56;5051368;28;20037;-45
2023/05/24 09:25:00;;;;;;;16.23;4.05;;;;;;;19.91;44.38;102620.69;5051237;28;20491;-48
2023/05/24 09:27:26;;;;;;;16.25;4.03;;;;;;;19.32;44.90;102615.16;5051419;28;20033;-46
2023/05/24 09:29:52;;;;;;;17.33;3.78;;;;;;;18.49;46.51;102621.59;5051397;28;20487;-49
2023/05/24 09:32:20;;;;;;;18.70;3.83;;;;;;;19.53;43.81;102611.75;5050795;28;20040;-45
2023/05/24 09:34:46;;;;;;;16.63;3.97;;;;;;;19.93;43.76;102612.78;5050938;28;20041;-49
2023/05/24 09:37:15;;;;;;;15.18;3.47;;;;;;;20.39;43.29;102611.97;5050695;28;20051;-47
2023/05/24 09:39:41;;;;;;;14.65;3.45;;;;;;;19.85;42.55;102616.28;5051056;28;20037;-48
2023/05/24 09:42:07;;;;;;;11.25;3.35;;;;;;;19.31;44.27;102616.03;5050854;28;20029;-45
2023/05/24 09:44:32;;;;;;;11.43;3.33;;;;;;;19.91;43.29;102604.81;5050638;28;20055;-47
2023/05/24 09:47:03;;;;;;;14.05;3.90;;;;;;;19.89;43.45;102603.94;5049512;28;20409;-46
2023/05/24 09:49:35;;;;;;;17.63;3.60;;;;;;;19.92;43.64;102603.94;5050534;28;20482;-46
2023/05/24 09:52:00;;;;;;;17.20;3.47;;;;;;;19.31;45.59;102605.47;5050185;28;20073;-50
2023/05/24 09:54:26;;;;;;;14.05;3.17;;;;;;;19.26;45.50;102597.50;5050331;28;20059;-48
2023/05/24 09:56:51;;;;;;;13.77;3.45;;;;;;;19.23;44.84;102600.13;5050047;28;20124;-44
2023/05/24 09:59:18;;;;;;;15.52;3.60;;;;;;;19.73;44.15;102594.19;5050475;28;20033;-44
2023/05/24 10:01:44;;;;;;;13.18;3.70;;;;;;;19.43;45.36;102598.47;5049951;28;20044;-45
2023/05/24 10:04:09;;;;;;;11.57;3.17;;;;;;;19.92;43.30;102593.34;5050666;28;20661;-49
2023/05/24 10:06:38;;;;;;;12.73;3.50;;;;;;;19.34;43.35;102598.41;5050017;28;20025;-45
2023/05/24 10:09:08;;;;;;;14.32;3.80;;;;;;;19.44;44.54;102594.06;5050242;28;20025;-45
2023/05/24 10:11:36;;;;;;;14.18;3.50;;;;;;;18.76;45.86;102605.13;5051004;28;20437;-43
2023/05/24 10:14:04;;;;;;;17.80;3.80;;;;;;;18.94;44.25;102599.97;5051105;28;20033;-46
2023/05/24 10:16:29;;;;;;;16.05;4.07;;;;;;;19.78;43.41;102592.44;5049682;28;20037;-46
2023/05/24 10:18:55;;;;;;;15.65;3.78;;;;;;;18.93;44.08;102590.25;5049308;28;20059;-44
2023/05/24 10:21:23;;;;;;;16.05;3.20;;;;;;;19.85;43.34;102592.47;5049607;28;20066;-44
2023/05/24 10:23:52;;;;;;;10.88;3.30;;;;;;;20.19;42.50;102598.69;5049816;28;20127;-44
2023/05/24 10:26:18;;;;;;;11.43;2.97;;;;;;;20.38;41.84;102601.38;5049930;28;20040;-45
2023/05/24 10:28:51;;;;;;;13.65;3.40;;;;;;;20.35;41.97;102591.69;5031742;28;20144;-46
2023/05/24 10:31:27;;;;;;;13.73;3.77;;;;;;;20.12;41.19;102604.00;5050039;28;20079;-44
2023/05/24 10:33:55;;;;;;;13.45;3.55;;;;;;;20.24;41.64;102596.94;5049658;28;20404;-45
2023/05/24 10:36:21;;;;;;;14.52;3.80;;;;;;;19.99;43.16;102599.56;5049648;28;20086;-45
2023/05/24 10:38:47;;;;;;;13.05;3.38;;;;;;;20.53;40.30;102596.09;5048194;28;20130;-44
2023/05/24 10:41:12;;;;;;;11.93;3.10;;;;;;;20.45;41.07;102603.16;5049731;28;20506;-47
2023/05/24 10:43:38;;;;;;;11.95;3.10;;;;;;;20.47;39.83;102596.97;5048781;28;20029;-49
2023/05/24 10:46:07;;;;;;;9.98;3.17;;;;;;;20.14;41.51;102597.78;5049504;28;20071;-44
2023/05/24 10:48:39;;;;;;;15.45;3.25;;;;;;;20.03;41.33;102596.91;5049497;28;20174;-50
2023/05/24 10:51:34;;;;;;;12.90;3.20;;;;;;;19.73;41.72;102596.84;5049451;28;20037;-46
2023/05/24 10:54:11;;;;;;;;;;;;;;;20.18;41.66;102593.41;5049677;28;20039;-44
2023/05/24 10:56:44;;;;;;;11.90;3.20;;;;;;;19.67;41.79;102589.75;5049321;28;19944;-45
2023/05/24 10:59:22;;;;;;;13.20;3.20;;;;;;;20.21;40.54;102585.44;5049447;28;20495;-44
2023/05/24 11:01:57;;;;;;;11.18;3.17;;;;;;;20.76;39.28;102593.41;5049071;28;20116;-46
2023/05/24 11:04:23;;;;;;;11.65;3.25;;;;;;;20.45;40.07;102593.44;5049322;28;20049;-49
2023/05/24 11:06:57;;;;;;;13.00;3.28;;;;;;;20.30;40.16;102592.53;5049095;28;20033;-49
2023/05/24 11:09:23;;;;;;;9.70;3.35;;;;;;;20.88;39.38;102588.09;5049145;28;20499;-45
2023/05/24 11:11:53;;;;;;;13.98;3.25;;;;;;;20.80;39.95;102604.00;5048814;28;20622;-45
2023/05/24 11:14:23;;;;;;;11.18;3.20;;;;;;;20.70;38.84;102593.41;5049304;28;20037;-45
2023/05/24 11:16:50;;;;;;;12.00;3.10;;;;;;;20.87;39.37;102586.31;5049385;28;20091;-46
2023/05/24 11:19:35;;;;;;;12.30;3.28;;;;;;;20.86;40.51;102601.34;5049129;28;20033;-47